createdAt,value
2017-07-31T06:18:20.307Z,97.2
2017-07-31T06:19:21.713Z,97.2
2017-07-31T06:20:43.670Z,96.5
2017-07-31T06:21:45.074Z,96.3
2017-07-31T06:23:06.778Z,96.7
2017-07-31T06:24:08.183Z,95.1
2017-07-31T06:25:30.186Z,94.7
2017-07-31T06:26:31.591Z,95.3
2017-07-31T06:27:53.549Z,94.8
2017-07-31T06:28:54.953Z,95.0
2017-07-31T06:30:16.911Z,95.4
2017-07-31T06:31:18.321Z,95.3
2017-07-31T06:32:40.195Z,94.4
2017-07-31T06:33:41.614Z,95.0
2017-07-31T06:35:03.632Z,95.2
2017-07-31T06:36:05.037Z,95.0
2017-07-31T06:37:26.992Z,95.3
2017-07-31T06:38:28.400Z,95.2
2017-07-31T06:39:50.355Z,96.3
2017-07-31T06:40:51.760Z,96.4
2017-07-31T06:42:13.715Z,96.2
2017-07-31T06:43:15.127Z,96.7
2017-07-31T06:44:37.076Z,96.8
2017-07-31T06:45:38.483Z,96.6
2017-07-31T06:47:00.437Z,96.9
2017-07-31T06:48:01.839Z,96.0
2017-07-31T06:49:23.798Z,94.6
2017-07-31T06:50:25.200Z,94.4
2017-07-31T06:51:47.154Z,95.0
2017-07-31T06:52:48.568Z,95.2
2017-07-31T06:54:10.447Z,94.8
2017-07-31T06:55:11.857Z,95.1
2017-07-31T06:56:33.883Z,95.7
2017-07-31T06:57:35.285Z,95.9
2017-07-31T06:58:57.035Z,95.9
2017-07-31T06:59:58.467Z,95.9
2017-07-31T07:01:20.122Z,95.8
2017-07-31T07:02:21.530Z,96.0
2017-07-31T07:03:43.552Z,96.6
2017-07-31T07:04:44.980Z,96.2
2017-07-31T07:06:06.846Z,95.6
2017-07-31T07:07:08.249Z,95.6
2017-07-31T07:08:30.068Z,95.9
2017-07-31T07:09:31.474Z,95.8
2017-07-31T07:10:53.363Z,95.6
2017-07-31T07:11:54.771Z,95.5
2017-07-31T07:13:16.796Z,95.1
2017-07-31T07:14:18.193Z,95.2
2017-07-31T07:15:39.947Z,95.4
2017-07-31T07:16:41.350Z,94.8
2017-07-31T07:18:03.330Z,94.9
2017-07-31T07:19:04.849Z,93.9
2017-07-31T07:20:26.893Z,94.2
2017-07-31T07:21:28.302Z,93.3
2017-07-31T07:22:50.231Z,93.5
2017-07-31T07:23:51.637Z,93.9
2017-07-31T07:25:53.118Z,90.9
2017-07-31T07:26:54.547Z,90.6
2017-07-31T07:28:16.480Z,90.5
2017-07-31T07:29:17.885Z,91.2
2017-07-31T07:30:39.842Z,91.8
2017-07-31T07:31:41.257Z,92.4
2017-07-31T07:33:42.976Z,92.7
2017-07-31T07:34:44.383Z,92.4
2017-07-31T07:36:06.296Z,92.4
2017-07-31T07:37:07.697Z,92.1
2017-07-31T07:38:29.657Z,92.4
2017-07-31T07:39:31.059Z,92.4
2017-07-31T07:40:53.036Z,92.6
2017-07-31T07:41:54.445Z,91.6
2017-07-31T07:43:16.376Z,90.6
2017-07-31T07:44:17.783Z,89.1
2017-07-31T07:45:39.734Z,90.5
2017-07-31T07:46:41.144Z,90.2
2017-07-31T07:48:03.097Z,90.7
2017-07-31T07:49:04.598Z,89.5
2017-07-31T07:50:26.460Z,89.2
2017-07-31T07:51:27.866Z,89.1
2017-07-31T07:52:49.818Z,88.6
2017-07-31T07:53:51.250Z,89.1
2017-07-31T07:55:13.187Z,88.6
2017-07-31T07:56:14.586Z,88.5
2017-07-31T07:57:36.543Z,89.3
2017-07-31T07:58:37.945Z,89.1
2017-07-31T07:59:59.913Z,88.7
2017-07-31T08:01:01.320Z,87.7
2017-07-31T08:02:23.260Z,87.1
2017-07-31T08:03:24.670Z,87.6
2017-07-31T08:04:46.618Z,86.9
2017-07-31T08:05:48.027Z,86.0
2017-07-31T08:07:09.983Z,85.2
2017-07-31T08:08:11.391Z,85.2
2017-07-31T08:09:33.343Z,84.7
2017-07-31T08:10:34.749Z,84.9
2017-07-31T08:11:56.705Z,84.5
2017-07-31T08:12:58.108Z,81.8
2017-07-31T08:14:20.065Z,80.6
2017-07-31T08:15:21.470Z,80.3
2017-07-31T08:16:43.183Z,80.3
2017-07-31T08:17:44.596Z,79.2
2017-07-31T08:19:06.330Z,79.3
2017-07-31T08:20:07.750Z,79.6
2017-07-31T08:21:29.495Z,78.9
2017-07-31T08:22:30.905Z,78.1
2017-07-31T08:23:52.893Z,78.2
2017-07-31T08:24:54.301Z,78.6
2017-07-31T08:26:16.259Z,76.3
2017-07-31T08:27:17.664Z,77.4
2017-07-31T08:28:39.617Z,77.5
2017-07-31T08:29:41.025Z,77.2
2017-07-31T08:31:02.736Z,76.6
2017-07-31T08:32:04.140Z,76.1
2017-07-31T08:33:26.430Z,74.8
2017-07-31T08:34:27.843Z,72.5
2017-07-31T08:35:49.697Z,73.0
2017-07-31T08:36:51.107Z,73.0
2017-07-31T08:38:13.058Z,75.1
2017-07-31T08:39:14.466Z,74.1
2017-07-31T08:40:36.422Z,74.0
2017-07-31T08:41:37.829Z,73.6
2017-07-31T08:42:59.776Z,72.6
2017-07-31T08:44:01.187Z,72.8
2017-07-31T08:45:23.138Z,73.3
2017-07-31T08:46:24.549Z,71.1
2017-07-31T08:47:46.500Z,72.0
2017-07-31T08:48:47.910Z,69.1
2017-07-31T08:50:09.861Z,70.4
2017-07-31T08:51:11.275Z,68.7
2017-07-31T08:52:32.971Z,67.6
2017-07-31T08:53:34.381Z,67.6
2017-07-31T08:54:56.378Z,69.2
2017-07-31T08:55:57.786Z,69.5
2017-07-31T08:57:19.738Z,68.9
2017-07-31T08:58:21.163Z,68.7
2017-07-31T08:59:43.058Z,67.8
2017-07-31T09:00:44.473Z,68.4
2017-07-31T09:02:06.485Z,67.9
2017-07-31T09:03:07.894Z,66.5
2017-07-31T09:04:29.640Z,66.9
2017-07-31T09:05:31.030Z,68.1
2017-07-31T09:06:52.977Z,70.0
2017-07-31T09:07:54.390Z,69.1
2017-07-31T09:09:16.336Z,68.6
2017-07-31T09:10:17.748Z,69.3
2017-07-31T09:11:39.699Z,68.5
2017-07-31T09:12:41.111Z,67.8
2017-07-31T09:14:03.059Z,68.7
2017-07-31T09:15:04.471Z,69.2
2017-07-31T09:16:26.420Z,67.9
2017-07-31T09:17:27.834Z,66.0
2017-07-31T09:18:49.779Z,65.4
2017-07-31T09:19:51.193Z,66.7
2017-07-31T09:21:13.143Z,67.4
2017-07-31T09:22:14.557Z,67.7
2017-07-31T09:23:36.468Z,64.8
2017-07-31T09:24:37.884Z,64.3
2017-07-31T09:25:59.626Z,64.0
2017-07-31T09:27:01.052Z,64.2
2017-07-31T09:28:22.779Z,63.0
2017-07-31T09:29:24.196Z,63.6
2017-07-31T09:30:45.933Z,64.2
2017-07-31T09:31:47.350Z,62.8
2017-07-31T09:33:09.092Z,60.4
2017-07-31T09:34:10.507Z,60.5
2017-07-31T09:35:32.248Z,59.9
2017-07-31T09:36:33.659Z,59.4
2017-07-31T09:37:55.406Z,60.1
2017-07-31T09:38:56.828Z,61.0
2017-07-31T09:40:18.561Z,62.4
2017-07-31T09:41:19.975Z,62.3
2017-07-31T09:42:41.727Z,60.5
2017-07-31T09:43:43.171Z,61.4
2017-07-31T09:45:04.874Z,60.8
2017-07-31T09:46:06.293Z,61.0
2017-07-31T09:47:28.036Z,61.9
2017-07-31T09:48:29.460Z,60.2
2017-07-31T09:49:51.191Z,59.8
2017-07-31T09:50:52.604Z,61.3
2017-07-31T09:52:14.349Z,60.6
2017-07-31T09:53:15.762Z,60.7
2017-07-31T09:54:37.504Z,58.8
2017-07-31T09:55:38.923Z,58.6
2017-07-31T09:57:00.719Z,58.9
2017-07-31T09:58:02.134Z,55.2
2017-07-31T09:59:23.811Z,56.6
2017-07-31T10:00:25.228Z,57.8
2017-07-31T10:01:46.967Z,58.3
2017-07-31T10:02:48.385Z,57.3
2017-07-31T10:04:10.126Z,56.9
2017-07-31T10:05:11.543Z,58.6
2017-07-31T10:06:33.281Z,57.7
2017-07-31T10:07:34.697Z,57.0
2017-07-31T10:08:56.439Z,56.0
2017-07-31T10:09:57.861Z,54.9
2017-07-31T10:10:59.271Z,53.6
2017-07-31T10:12:00.732Z,54.8
2017-07-31T10:13:02.148Z,54.0
2017-07-31T10:14:03.613Z,53.2
2017-07-31T10:15:05.042Z,54.0
2017-07-31T10:16:06.499Z,53.2
2017-07-31T10:17:07.916Z,52.0
2017-07-31T10:18:09.335Z,51.8
2017-07-31T10:19:10.820Z,53.3
2017-07-31T10:20:12.235Z,53.5
2017-07-31T10:21:13.655Z,55.6
2017-07-31T10:22:15.136Z,54.2
2017-07-31T10:23:16.557Z,54.3
2017-07-31T10:24:18.019Z,53.3
2017-07-31T10:25:19.437Z,50.8
2017-07-31T10:26:20.901Z,51.0
2017-07-31T10:27:22.319Z,52.0
2017-07-31T10:28:23.738Z,50.0
2017-07-31T10:29:25.223Z,50.4
2017-07-31T10:30:26.651Z,50.2
2017-07-31T10:31:28.063Z,47.9
2017-07-31T10:32:29.544Z,49.3
2017-07-31T10:33:30.969Z,44.6
2017-07-31T10:34:32.383Z,44.6
2017-07-31T10:35:33.865Z,46.9
2017-07-31T10:36:35.284Z,47.6
2017-07-31T10:37:36.704Z,45.6
2017-07-31T10:38:38.183Z,41.8
2017-07-31T10:39:39.603Z,40.9
2017-07-31T10:40:41.083Z,40.4
2017-07-31T10:41:42.501Z,42.2
2017-07-31T10:42:43.952Z,43.3
2017-07-31T10:43:45.375Z,44.7
2017-07-31T10:44:46.848Z,43.4
2017-07-31T10:45:48.245Z,43.3
2017-07-31T10:46:49.709Z,43.4
2017-07-31T10:47:51.125Z,41.5
2017-07-31T10:48:52.590Z,44.3
2017-07-31T10:49:54.007Z,44.9
2017-07-31T10:50:55.472Z,44.8
2017-07-31T10:51:56.888Z,46.4
2017-07-31T10:52:58.304Z,44.3
2017-07-31T10:53:59.795Z,45.1
2017-07-31T10:55:01.212Z,44.8
2017-07-31T10:56:02.630Z,45.0
2017-07-31T10:57:04.115Z,44.3
2017-07-31T10:58:05.533Z,43.8
2017-07-31T10:59:06.953Z,43.7
2017-07-31T11:00:08.437Z,40.9
2017-07-31T11:01:09.850Z,41.6
2017-07-31T11:02:11.265Z,42.0
2017-07-31T11:03:12.962Z,42.2
2017-07-31T11:04:14.383Z,42.1
2017-07-31T11:05:15.845Z,43.3
2017-07-31T11:06:17.263Z,42.1
2017-07-31T11:07:18.684Z,40.0
2017-07-31T11:08:20.167Z,39.7
2017-07-31T11:09:21.585Z,40.6
2017-07-31T11:10:23.007Z,36.9
2017-07-31T11:11:24.488Z,38.7
2017-07-31T11:12:25.908Z,39.7
2017-07-31T11:13:27.330Z,34.3
2017-07-31T11:14:28.810Z,37.1
2017-07-31T11:15:30.229Z,36.8
2017-07-31T11:16:31.666Z,37.8
2017-07-31T11:17:33.131Z,38.1
2017-07-31T11:18:34.550Z,38.8
2017-07-31T11:19:35.973Z,38.0
2017-07-31T11:20:37.453Z,38.9
2017-07-31T11:21:38.873Z,39.4
2017-07-31T11:22:40.293Z,39.0
2017-07-31T11:23:41.774Z,38.4
2017-07-31T11:24:43.192Z,35.4
2017-07-31T11:25:44.657Z,34.1
2017-07-31T11:26:46.089Z,35.1
2017-07-31T11:27:47.503Z,32.2
2017-07-31T11:28:48.977Z,35.1
2017-07-31T11:29:50.400Z,36.4
2017-07-31T11:30:51.815Z,37.4
2017-07-31T11:31:53.302Z,37.6
2017-07-31T11:32:54.720Z,36.8
2017-07-31T11:33:56.938Z,37.3
2017-07-31T11:34:58.364Z,38.3
2017-07-31T11:36:00.098Z,37.9
2017-07-31T11:37:01.517Z,36.9
2017-07-31T11:38:02.933Z,35.7
2017-07-31T11:39:04.413Z,36.3
2017-07-31T11:40:05.837Z,38.5
2017-07-31T11:41:07.257Z,37.9
2017-07-31T11:42:08.755Z,38.7
2017-07-31T11:43:10.175Z,39.4
2017-07-31T11:44:11.570Z,38.5
2017-07-31T11:45:13.155Z,37.8
2017-07-31T11:46:14.574Z,36.7
2017-07-31T11:47:15.992Z,36.5
2017-07-31T11:48:17.683Z,38.2
2017-07-31T11:49:19.107Z,39.2
2017-07-31T11:50:20.514Z,40.1
2017-07-31T11:51:22.209Z,38.9
2017-07-31T11:52:23.633Z,38.6
2017-07-31T11:53:25.042Z,37.8
2017-07-31T11:54:26.733Z,36.5
2017-07-31T11:55:28.152Z,36.9
2017-07-31T11:56:29.571Z,38.5
2017-07-31T11:57:31.259Z,40.9
2017-07-31T11:58:32.680Z,41.1
2017-07-31T11:59:34.345Z,42.0
2017-07-31T12:00:35.761Z,42.3
2017-07-31T12:01:37.429Z,40.9
2017-07-31T12:02:38.851Z,40.1
2017-07-31T12:03:40.271Z,40.1
2017-07-31T12:04:41.960Z,40.0
2017-07-31T12:05:43.375Z,38.8
2017-07-31T12:06:44.791Z,37.8
2017-07-31T12:07:46.488Z,37.9
2017-07-31T12:08:47.901Z,38.1
2017-07-31T12:09:49.774Z,38.3
2017-07-31T12:10:51.186Z,36.1
2017-07-31T12:11:52.859Z,38.0
2017-07-31T12:12:54.270Z,36.9
2017-07-31T12:13:55.688Z,37.9
2017-07-31T12:14:57.283Z,39.0
2017-07-31T12:15:58.697Z,39.7
2017-07-31T12:17:00.112Z,38.5
2017-07-31T12:18:01.707Z,37.0
2017-07-31T12:19:03.123Z,35.7
2017-07-31T12:20:04.792Z,33.3
2017-07-31T12:21:06.207Z,31.6
2017-07-31T12:22:07.879Z,30.1
2017-07-31T12:23:09.296Z,31.0
2017-07-31T12:24:10.713Z,32.1
2017-07-31T12:25:12.402Z,31.9
2017-07-31T12:26:13.824Z,32.5
2017-07-31T12:27:15.237Z,31.7
2017-07-31T12:28:16.936Z,30.2
2017-07-31T12:29:18.350Z,28.9
2017-07-31T12:30:19.762Z,29.0
2017-07-31T12:31:21.457Z,29.5
2017-07-31T12:32:22.874Z,26.7
2017-07-31T12:33:24.291Z,28.1
2017-07-31T12:34:25.982Z,26.0
2017-07-31T12:35:27.395Z,26.5
2017-07-31T12:36:28.809Z,28.5
2017-07-31T12:37:30.517Z,30.1
2017-07-31T12:38:31.937Z,30.3
2017-07-31T12:39:33.352Z,30.9
2017-07-31T12:40:35.037Z,32.7
2017-07-31T12:41:36.454Z,32.6
2017-07-31T12:42:38.119Z,34.3
2017-07-31T12:43:39.535Z,34.1
2017-07-31T12:44:41.202Z,34.6
2017-07-31T12:45:42.624Z,34.2
2017-07-31T12:46:44.285Z,31.8
2017-07-31T12:47:45.698Z,31.4
2017-07-31T12:48:47.112Z,30.7
2017-07-31T12:49:48.816Z,28.8
2017-07-31T12:50:50.240Z,27.9
2017-07-31T12:51:51.648Z,25.4
2017-07-31T12:52:53.338Z,24.3
2017-07-31T12:53:54.758Z,24.1
2017-07-31T12:54:56.422Z,19.7
2017-07-31T12:55:57.837Z,19.3
2017-07-31T12:56:59.529Z,19.4
2017-07-31T12:58:00.923Z,20.0
2017-07-31T12:59:02.503Z,21.7
2017-07-31T13:00:03.923Z,21.9
2017-07-31T13:01:05.474Z,20.0
2017-07-31T13:02:06.895Z,20.2
2017-07-31T13:03:08.567Z,19.7
2017-07-31T13:04:09.981Z,19.1
2017-07-31T13:05:11.658Z,17.7
2017-07-31T13:06:13.074Z,17.4
2017-07-31T13:07:14.734Z,16.9
2017-07-31T13:08:16.153Z,16.8
2017-07-31T13:09:17.820Z,16.2
2017-07-31T13:10:19.238Z,16.7
2017-07-31T13:11:20.904Z,18.0
2017-07-31T13:12:22.320Z,19.7
2017-07-31T13:13:23.988Z,21.8
2017-07-31T13:14:25.417Z,22.5
2017-07-31T13:15:27.075Z,22.3
2017-07-31T13:16:28.495Z,21.7
2017-07-31T13:17:30.159Z,23.7
2017-07-31T13:18:31.579Z,26.0
2017-07-31T13:19:32.986Z,27.5
2017-07-31T13:20:34.685Z,26.6
2017-07-31T13:21:36.100Z,28.4
2017-07-31T13:22:37.519Z,28.9
2017-07-31T13:23:39.232Z,31.1
2017-07-31T13:24:40.623Z,31.7
2017-07-31T13:25:42.041Z,29.3
2017-07-31T13:26:43.900Z,31.5
2017-07-31T13:27:45.310Z,34.0
2017-07-31T13:28:46.723Z,33.4
2017-07-31T13:29:48.260Z,33.3
2017-07-31T13:30:49.676Z,33.1
2017-07-31T13:31:51.341Z,32.7
2017-07-31T13:32:52.758Z,33.0
2017-07-31T13:33:54.429Z,33.5
2017-07-31T13:34:55.850Z,34.4
2017-07-31T13:35:57.262Z,35.1
2017-07-31T13:36:58.956Z,35.6
2017-07-31T13:38:00.366Z,36.4
2017-07-31T13:39:01.778Z,35.7
2017-07-31T13:40:03.482Z,37.3
2017-07-31T13:41:04.896Z,38.1
2017-07-31T13:42:06.311Z,37.9
2017-07-31T13:43:07.723Z,39.0
2017-07-31T13:44:09.088Z,35.1
2017-07-31T13:45:10.682Z,36.5
2017-07-31T13:46:12.095Z,37.7
2017-07-31T13:47:13.510Z,37.5
2017-07-31T13:48:15.219Z,39.4
2017-07-31T13:49:16.632Z,38.4
2017-07-31T13:50:18.046Z,37.9
2017-07-31T13:51:19.734Z,39.2
2017-07-31T13:52:21.146Z,39.3
2017-07-31T13:53:22.555Z,37.9
2017-07-31T13:54:24.255Z,39.7
2017-07-31T13:55:25.851Z,40.0
2017-07-31T13:56:27.555Z,39.9
2017-07-31T13:57:28.963Z,39.9
2017-07-31T13:58:30.638Z,41.0
2017-07-31T13:59:32.049Z,39.1
2017-07-31T14:00:33.748Z,36.0
2017-07-31T14:01:35.160Z,36.2
2017-07-31T14:02:36.806Z,36.6
2017-07-31T14:03:38.219Z,36.7
2017-07-31T14:04:39.632Z,38.1
2017-07-31T14:05:41.332Z,39.9
2017-07-31T14:06:42.743Z,38.1
2017-07-31T14:07:44.162Z,37.5
2017-07-31T14:08:45.858Z,38.7
2017-07-31T14:09:47.374Z,39.7
2017-07-31T14:10:48.943Z,40.1
2017-07-31T14:11:50.358Z,40.1
2017-07-31T14:12:52.026Z,38.9
2017-07-31T14:13:53.439Z,39.8
2017-07-31T14:14:55.113Z,39.8
2017-07-31T14:15:56.524Z,41.5
2017-07-31T14:16:59.019Z,41.2
2017-07-31T14:18:00.433Z,42.7
2017-07-31T14:19:02.108Z,42.9
2017-07-31T14:20:03.530Z,41.2
2017-07-31T14:21:05.195Z,40.7
2017-07-31T14:22:06.600Z,39.9
2017-07-31T14:23:08.275Z,41.1
2017-07-31T14:24:09.687Z,42.9
2017-07-31T14:25:11.099Z,43.0
2017-07-31T14:26:12.800Z,42.4
2017-07-31T14:27:14.221Z,43.2
2017-07-31T14:28:15.620Z,43.4
2017-07-31T14:29:17.123Z,43.6
2017-07-31T14:30:18.534Z,43.0
2017-07-31T14:31:20.206Z,42.8
2017-07-31T14:32:21.617Z,42.5
2017-07-31T14:33:23.292Z,43.2
2017-07-31T14:34:24.701Z,43.7
2017-07-31T14:35:26.116Z,44.6
2017-07-31T14:36:27.616Z,43.8
2017-07-31T14:37:29.049Z,43.6
2017-07-31T14:38:30.457Z,45.2
2017-07-31T14:39:32.140Z,44.9
2017-07-31T14:40:33.549Z,43.5
2017-07-31T14:41:35.226Z,42.5
2017-07-31T14:42:36.634Z,42.2
2017-07-31T14:43:38.310Z,42.3
2017-07-31T14:44:39.737Z,42.8
2017-07-31T14:45:41.397Z,43.5
2017-07-31T14:46:42.817Z,44.1
2017-07-31T14:47:44.422Z,44.9
2017-07-31T14:48:45.845Z,45.7
2017-07-31T14:49:47.294Z,46.5
2017-07-31T14:50:48.701Z,47.2
2017-07-31T14:51:50.110Z,47.6
2017-07-31T14:52:51.622Z,48.0
2017-07-31T14:53:53.037Z,48.1
2017-07-31T14:54:54.449Z,47.0
2017-07-31T14:55:55.940Z,46.9
2017-07-31T14:56:57.350Z,47.1
2017-07-31T14:57:58.756Z,47.5
2017-07-31T14:59:00.161Z,46.2
2017-07-31T15:00:01.574Z,46.4
2017-07-31T15:01:03.346Z,46.3
2017-07-31T15:02:04.756Z,45.1
2017-07-31T15:03:06.170Z,45.8
2017-07-31T15:04:07.666Z,46.8
2017-07-31T15:05:09.076Z,48.1
2017-07-31T15:06:10.485Z,48.3
2017-07-31T15:07:11.988Z,48.6
2017-07-31T15:08:13.407Z,48.6
2017-07-31T15:09:14.923Z,49.3
2017-07-31T15:10:16.545Z,49.3
2017-07-31T15:11:17.954Z,47.5
2017-07-31T15:12:19.399Z,48.1
2017-07-31T15:13:20.809Z,48.2
2017-07-31T15:14:22.280Z,47.5
2017-07-31T15:15:23.719Z,47.7
2017-07-31T15:16:25.131Z,48.0
2017-07-31T15:17:26.599Z,46.8
2017-07-31T15:18:28.114Z,46.3
2017-07-31T15:19:29.537Z,47.2
2017-07-31T15:20:31.193Z,47.7
2017-07-31T15:21:32.606Z,48.0
2017-07-31T15:22:34.236Z,46.6
2017-07-31T15:23:35.647Z,46.4
2017-07-31T15:24:37.149Z,47.0
2017-07-31T15:25:38.556Z,45.8
2017-07-31T15:26:40.245Z,46.5
2017-07-31T15:27:41.652Z,47.5
2017-07-31T15:28:43.321Z,45.8
2017-07-31T15:29:44.733Z,46.7
2017-07-31T15:30:46.146Z,47.7
2017-07-31T15:31:47.653Z,49.2
2017-07-31T15:32:49.067Z,49.3
2017-07-31T15:33:50.480Z,48.1
2017-07-31T15:34:52.056Z,45.2
2017-07-31T15:35:53.422Z,47.5
2017-07-31T15:36:54.832Z,47.8
2017-07-31T15:37:56.489Z,46.8
2017-07-31T15:38:57.901Z,46.6
2017-07-31T15:39:59.318Z,46.9
2017-07-31T15:41:00.812Z,47.8
2017-07-31T15:42:02.224Z,47.6
2017-07-31T15:43:03.686Z,47.0
2017-07-31T15:44:05.338Z,48.6
2017-07-31T15:45:07.370Z,49.7
2017-07-31T15:46:09.006Z,49.4
2017-07-31T15:47:10.688Z,50.0
2017-07-31T15:48:12.090Z,49.7
2017-07-31T15:49:13.767Z,48.0
2017-07-31T15:50:15.185Z,48.0
2017-07-31T15:51:16.908Z,48.5
2017-07-31T15:52:18.326Z,48.5
2017-07-31T15:53:19.935Z,48.8
2017-07-31T15:54:21.339Z,50.0
2017-07-31T15:55:22.815Z,49.9
2017-07-31T15:56:24.225Z,49.6
2017-07-31T15:57:25.901Z,49.3
2017-07-31T15:58:27.309Z,48.1
2017-07-31T15:59:29.006Z,48.0
2017-07-31T16:00:30.893Z,47.7
2017-07-31T16:01:32.300Z,48.2
2017-07-31T16:02:33.923Z,49.0
2017-07-31T16:03:35.335Z,51.3
2017-07-31T16:04:36.744Z,53.0
2017-07-31T16:05:38.244Z,52.6
2017-07-31T16:06:39.653Z,52.7
2017-07-31T16:07:41.094Z,53.4
2017-07-31T16:08:42.577Z,54.5
2017-07-31T16:09:43.974Z,54.5
2017-07-31T16:10:45.387Z,54.5
2017-07-31T16:11:46.923Z,54.5
2017-07-31T16:12:48.328Z,54.6
2017-07-31T16:13:49.741Z,55.4
2017-07-31T16:14:51.412Z,55.4
2017-07-31T16:15:52.822Z,55.8
2017-07-31T16:16:54.227Z,55.8
2017-07-31T16:17:55.744Z,55.4
2017-07-31T16:18:57.164Z,55.1
2017-07-31T16:19:58.579Z,55.6
2017-07-31T16:21:00.058Z,56.0
2017-07-31T16:22:01.488Z,50.9
2017-07-31T16:23:03.146Z,51.6
2017-07-31T16:24:04.604Z,52.4
2017-07-31T16:25:06.229Z,51.9
2017-07-31T16:26:07.638Z,52.2
2017-07-31T16:27:09.056Z,53.5
2017-07-31T16:28:10.547Z,54.4
2017-07-31T16:29:11.957Z,55.1
2017-07-31T16:30:13.386Z,55.4
2017-07-31T16:31:14.879Z,55.0
2017-07-31T16:32:16.289Z,54.4
2017-07-31T16:33:17.707Z,54.6
2017-07-31T16:34:19.188Z,54.5
2017-07-31T16:35:20.605Z,55.5
2017-07-31T16:36:22.063Z,55.3
2017-07-31T16:37:23.508Z,56.2
2017-07-31T16:38:24.946Z,56.6
2017-07-31T16:39:26.595Z,55.5
2017-07-31T16:40:28.011Z,56.2
2017-07-31T16:41:29.422Z,56.5
2017-07-31T16:42:30.933Z,56.5
2017-07-31T16:43:32.345Z,56.4
2017-07-31T16:44:33.753Z,57.8
2017-07-31T16:45:35.240Z,56.6
2017-07-31T16:46:36.645Z,56.7
2017-07-31T16:47:38.057Z,57.4
2017-07-31T16:48:39.557Z,58.2
2017-07-31T16:49:41.378Z,59.4
2017-07-31T16:50:42.788Z,59.5
2017-07-31T16:51:44.288Z,59.3
2017-07-31T16:52:45.692Z,59.4
2017-07-31T16:53:47.166Z,59.3
2017-07-31T16:54:48.611Z,59.4
2017-07-31T16:55:50.252Z,59.1
2017-07-31T16:56:51.664Z,59.1
2017-07-31T16:57:53.134Z,59.3
2017-07-31T16:58:54.541Z,59.3
2017-07-31T16:59:56.013Z,58.6
2017-07-31T17:00:57.421Z,59.4
2017-07-31T17:01:58.894Z,59.0
2017-07-31T17:03:00.308Z,57.2
2017-07-31T17:04:01.774Z,57.8
2017-07-31T17:05:03.183Z,59.3
2017-07-31T17:06:04.591Z,59.4
2017-07-31T17:07:06.094Z,59.2
2017-07-31T17:08:07.503Z,58.5
2017-07-31T17:09:08.913Z,59.3
2017-07-31T17:10:10.415Z,59.8
2017-07-31T17:11:11.825Z,60.0
2017-07-31T17:12:13.244Z,59.6
2017-07-31T17:13:14.813Z,59.4
2017-07-31T17:14:16.244Z,59.9
2017-07-31T17:15:17.653Z,60.3
2017-07-31T17:16:19.262Z,60.3
2017-07-31T17:17:20.690Z,59.7
2017-07-31T17:18:22.101Z,60.2
2017-07-31T17:19:23.788Z,60.0
2017-07-31T17:20:25.195Z,58.8
2017-07-31T17:21:26.602Z,59.4
2017-07-31T17:22:28.110Z,59.7
2017-07-31T17:23:29.517Z,60.3
2017-07-31T17:24:30.989Z,59.8
2017-07-31T17:25:32.399Z,59.2
2017-07-31T17:26:33.868Z,60.0
2017-07-31T17:27:35.714Z,60.2
2017-07-31T17:28:37.133Z,59.9
2017-07-31T17:29:38.601Z,60.3
2017-07-31T17:30:40.010Z,60.3
2017-07-31T17:31:41.442Z,60.4
2017-07-31T17:32:42.925Z,60.7
2017-07-31T17:33:44.331Z,60.0
2017-07-31T17:34:45.830Z,60.9
2017-07-31T17:35:47.229Z,60.4
2017-07-31T17:36:48.684Z,60.2
2017-07-31T17:37:50.098Z,60.9
2017-07-31T17:38:51.977Z,61.8
2017-07-31T17:39:53.390Z,61.7
2017-07-31T17:40:54.854Z,61.2
2017-07-31T17:41:56.263Z,60.9
2017-07-31T17:42:57.736Z,60.9
2017-07-31T17:43:59.168Z,61.1
2017-07-31T17:45:00.911Z,60.5
2017-07-31T17:46:02.329Z,60.8
2017-07-31T17:47:03.749Z,61.7
2017-07-31T17:48:05.357Z,61.6
2017-07-31T17:49:06.787Z,62.0
2017-07-31T17:50:08.200Z,61.5
2017-07-31T17:51:09.670Z,62.3
2017-07-31T17:52:11.078Z,61.6
2017-07-31T17:53:12.489Z,61.5
2017-07-31T17:54:13.987Z,61.5
2017-07-31T17:55:15.397Z,62.1
2017-07-31T17:56:16.807Z,62.1
2017-07-31T17:57:18.313Z,62.2
2017-07-31T17:58:19.720Z,62.6
2017-07-31T17:59:21.191Z,62.2
2017-07-31T18:00:22.639Z,62.4
2017-07-31T18:01:24.298Z,61.9
2017-07-31T18:02:25.738Z,61.7
2017-07-31T18:03:27.144Z,61.7
2017-07-31T18:04:28.595Z,61.7
2017-07-31T18:05:30.428Z,61.5
2017-07-31T18:06:31.848Z,61.8
2017-07-31T18:07:33.328Z,62.2
2017-07-31T18:08:34.747Z,62.0
2017-07-31T18:09:36.205Z,62.1
2017-07-31T18:10:37.617Z,62.3
2017-07-31T18:11:39.086Z,62.7
2017-07-31T18:12:40.499Z,63.3
2017-07-31T18:13:41.965Z,63.7
2017-07-31T18:14:43.386Z,64.0
2017-07-31T18:15:44.870Z,64.1
2017-07-31T18:16:46.281Z,64.1
2017-07-31T18:17:47.729Z,63.7
2017-07-31T18:18:49.141Z,63.4
2017-07-31T18:19:50.609Z,63.2
2017-07-31T18:20:52.031Z,63.0
2017-07-31T18:21:53.493Z,62.7
2017-07-31T18:22:54.901Z,61.5
2017-07-31T18:23:56.307Z,61.0
2017-07-31T18:24:57.812Z,60.9
2017-07-31T18:25:59.248Z,61.8
2017-07-31T18:27:00.633Z,62.1
2017-07-31T18:28:02.128Z,62.2
2017-07-31T18:29:03.539Z,62.6
2017-07-31T18:30:04.949Z,62.6
2017-07-31T18:31:06.450Z,63.0
2017-07-31T18:32:07.933Z,62.2
2017-07-31T18:33:09.341Z,63.2
2017-07-31T18:34:11.000Z,64.0
2017-07-31T18:35:12.405Z,62.7
2017-07-31T18:36:13.838Z,62.0
2017-07-31T18:37:15.296Z,62.4
2017-07-31T18:38:16.717Z,63.3
2017-07-31T18:39:18.182Z,63.9
2017-07-31T18:40:19.592Z,63.7
2017-07-31T18:41:21.062Z,63.7
2017-07-31T18:42:22.470Z,64.0
2017-07-31T18:43:23.938Z,64.0
2017-07-31T18:44:25.350Z,63.7
2017-07-31T18:45:26.820Z,63.8
2017-07-31T18:46:28.225Z,63.7
2017-07-31T18:47:29.798Z,64.2
2017-07-31T18:48:31.206Z,64.5
2017-07-31T18:49:32.819Z,64.5
2017-07-31T18:50:34.232Z,65.0
2017-07-31T18:51:35.668Z,65.4
2017-07-31T18:52:37.074Z,65.6
2017-07-31T18:53:38.646Z,65.7
2017-07-31T18:54:40.434Z,65.8
2017-07-31T18:55:42.045Z,65.7
2017-07-31T18:56:43.490Z,64.6
2017-07-31T18:57:44.924Z,65.5
2017-07-31T18:58:46.336Z,65.6
2017-07-31T18:59:47.818Z,65.6
2017-07-31T19:00:49.216Z,65.3
2017-07-31T19:01:50.756Z,65.7
2017-07-31T19:02:52.157Z,65.5
2017-07-31T19:03:53.566Z,64.5
2017-07-31T19:04:55.025Z,64.9
2017-07-31T19:05:56.447Z,65.2
2017-07-31T19:06:57.874Z,65.6
2017-07-31T19:07:59.332Z,66.0
2017-07-31T19:09:00.732Z,66.0
2017-07-31T19:10:02.141Z,65.8
2017-07-31T19:11:04.671Z,65.4
2017-07-31T19:12:06.237Z,65.8
2017-07-31T19:13:07.639Z,66.2
2017-07-31T19:14:09.195Z,66.1
2017-07-31T19:15:10.598Z,65.8
2017-07-31T19:16:12.188Z,66.0
2017-07-31T19:17:13.598Z,66.3
2017-07-31T19:18:15.339Z,66.7
2017-07-31T19:19:16.849Z,66.5
2017-07-31T19:20:18.452Z,66.4
2017-07-31T19:21:19.860Z,66.3
2017-07-31T19:22:21.435Z,65.4
2017-07-31T19:23:22.839Z,65.6
2017-07-31T19:24:24.542Z,65.5
2017-07-31T19:25:25.949Z,65.7
2017-07-31T19:26:27.607Z,65.7
2017-07-31T19:27:29.012Z,65.8
2017-07-31T19:28:30.412Z,65.6
2017-07-31T19:29:32.148Z,65.6
2017-07-31T19:30:33.550Z,65.9
2017-07-31T19:31:34.988Z,66.7
2017-07-31T19:32:36.659Z,66.6
2017-07-31T19:33:38.059Z,66.4
2017-07-31T19:34:39.470Z,66.3
2017-07-31T19:35:41.184Z,65.9
2017-07-31T19:36:42.588Z,66.3
2017-07-31T19:37:44.270Z,66.7
2017-07-31T19:38:45.673Z,66.4
2017-07-31T19:39:47.080Z,66.4
2017-07-31T19:40:48.796Z,66.4
2017-07-31T19:41:50.200Z,66.4
2017-07-31T19:42:51.623Z,66.1
2017-07-31T19:43:53.322Z,66.3
2017-07-31T19:44:54.725Z,66.2
2017-07-31T19:45:56.406Z,66.0
2017-07-31T19:46:57.807Z,66.7
2017-07-31T19:47:59.493Z,67.1
2017-07-31T19:49:00.927Z,67.0
2017-07-31T19:50:02.574Z,67.1
2017-07-31T19:51:03.984Z,67.1
2017-07-31T19:52:05.666Z,67.0
2017-07-31T19:53:07.063Z,67.3
2017-07-31T19:54:08.747Z,67.4
2017-07-31T19:55:10.154Z,67.2
2017-07-31T19:56:11.830Z,67.6
2017-07-31T19:57:13.238Z,67.4
2017-07-31T19:58:14.933Z,67.8
2017-07-31T19:59:16.334Z,67.6
2017-07-31T20:00:18.002Z,68.5
2017-07-31T20:01:19.417Z,67.8
2017-07-31T20:02:21.104Z,68.0
2017-07-31T20:03:22.536Z,67.7
2017-07-31T20:04:23.942Z,68.0
2017-07-31T20:05:25.618Z,68.5
2017-07-31T20:06:27.022Z,68.4
2017-07-31T20:07:28.424Z,68.1
2017-07-31T20:08:30.141Z,68.0
2017-07-31T20:09:31.549Z,68.7
2017-07-31T20:10:33.233Z,68.9
2017-07-31T20:11:34.638Z,69.3
2017-07-31T20:12:36.314Z,69.3
2017-07-31T20:13:37.715Z,68.9
2017-07-31T20:14:39.398Z,68.8
2017-07-31T20:15:40.843Z,69.8
2017-07-31T20:16:42.486Z,69.5
2017-07-31T20:17:43.890Z,68.5
2017-07-31T20:18:45.297Z,68.1
2017-07-31T20:19:47.010Z,68.2
2017-07-31T20:20:48.432Z,68.1
2017-07-31T20:21:49.834Z,68.5
2017-07-31T20:22:51.544Z,68.6
2017-07-31T20:23:52.937Z,68.8
2017-07-31T20:24:54.344Z,69.3
2017-07-31T20:25:55.857Z,69.3
2017-07-31T20:26:57.257Z,69.7
2017-07-31T20:27:58.980Z,69.5
2017-07-31T20:29:00.352Z,69.7
2017-07-31T20:30:01.754Z,69.5